Terminal Aerodrome Forecast
Issued by NWS

Home | Current Version | Previous Version | Text Only | Print | Product List | Glossary On
Versions: 1 2 3 4 5 6 7 8 9 10 11 12 13 14 15 16 17 18 19 20
000
FTAK31 PANC 261018 AAA
TAFAVD
TAF AMD
PAVD 261018Z 2610/2706 VRB03KT P6SM VCFG BKN003 BKN040
      TEMPO 2610/2612 SCT003
     FM261500 08012G24KT P6SM FEW060 SCT120
     FM262100 10008KT P6SM SKC
      AMD LTD TO CLD VIS AND WIND=

USA.gov is the U.S. government's official web portal to all federal, state and local government web resources and services.